createdAt,value
2023-06-21T00:00:17.468Z,8.41
2023-06-21T00:02:21.133Z,8.42
2023-06-21T00:04:23.963Z,8.43
2023-06-21T00:06:30.312Z,8.42
2023-06-21T00:08:34.221Z,8.41
2023-06-21T00:10:37.086Z,8.39
2023-06-21T00:12:40.052Z,8.39
2023-06-21T00:14:42.951Z,8.39
2023-06-21T00:16:47.361Z,8.41
2023-06-21T00:18:50.185Z,8.46
2023-06-21T00:20:53.003Z,8.47
2023-06-21T00:22:57.685Z,8.49
2023-06-21T00:25:00.965Z,8.50
2023-06-21T00:27:03.819Z,8.53
2023-06-21T00:29:06.578Z,8.54
2023-06-21T00:31:12.372Z,8.52
2023-06-21T00:33:15.211Z,8.49
2023-06-21T00:35:18.061Z,8.53
2023-06-21T00:37:20.869Z,8.51
2023-06-21T00:39:23.682Z,8.52
2023-06-21T00:41:26.351Z,8.54
2023-06-21T00:43:29.298Z,8.56
2023-06-21T00:45:41.889Z,8.57
2023-06-21T00:47:47.256Z,8.58
2023-06-21T00:49:50.744Z,8.53
2023-06-21T00:51:59.405Z,8.58
2023-06-21T00:54:02.125Z,8.58
2023-06-21T00:56:05.502Z,8.58
2023-06-21T00:58:10.378Z,8.61
2023-06-21T01:00:22.192Z,8.60
2023-06-21T01:02:24.812Z,8.62
2023-06-21T01:04:29.954Z,8.60
2023-06-21T01:07:10.520Z,8.58
2023-06-21T01:09:36.321Z,8.53
2023-06-21T01:12:07.395Z,8.50
2023-06-21T01:14:42.521Z,8.50
2023-06-21T01:16:49.902Z,8.43
2023-06-21T01:18:54.245Z,8.39
2023-06-21T01:20:58.853Z,8.37
2023-06-21T01:23:17.493Z,8.41
2023-06-21T01:25:32.151Z,8.37
2023-06-21T01:27:58.197Z,8.40
2023-06-21T01:30:03.463Z,8.43
2023-06-21T01:32:12.190Z,8.49
2023-06-21T01:34:15.656Z,8.49
2023-06-21T01:36:19.652Z,8.51
2023-06-21T01:38:24.681Z,8.51
2023-06-21T01:40:28.630Z,8.54
2023-06-21T01:42:31.630Z,8.57
2023-06-21T01:44:34.912Z,8.50
2023-06-21T01:46:38.459Z,8.56
2023-06-21T01:48:44.108Z,8.58
2023-06-21T01:50:47.810Z,8.64
2023-06-21T01:52:53.341Z,8.63
2023-06-21T01:54:56.509Z,8.59
2023-06-21T01:57:01.018Z,8.64
2023-06-21T01:59:04.277Z,8.65
2023-06-21T02:01:09.353Z,8.71
2023-06-21T02:03:15.444Z,8.73
2023-06-21T02:05:18.644Z,8.65
2023-06-21T02:07:22.162Z,8.77
2023-06-21T02:09:27.233Z,8.81
2023-06-21T02:11:30.350Z,8.84
2023-06-21T02:13:33.137Z,8.82
2023-06-21T02:15:39.542Z,8.80
2023-06-21T02:17:42.626Z,8.85
2023-06-21T02:19:45.876Z,8.86
2023-06-21T02:21:48.788Z,8.87
2023-06-21T02:23:52.041Z,8.83
2023-06-21T02:25:54.778Z,8.78
2023-06-21T02:27:57.623Z,8.81
2023-06-21T02:30:00.360Z,8.89
2023-06-21T02:32:03.223Z,8.89
2023-06-21T02:34:06.135Z,8.90
2023-06-21T02:36:09.084Z,8.99
2023-06-21T02:38:11.882Z,8.92
2023-06-21T02:40:15.155Z,8.94
2023-06-21T02:42:17.835Z,8.98
2023-06-21T02:44:20.553Z,9.01
2023-06-21T02:46:23.414Z,8.96
2023-06-21T02:48:26.203Z,9.01
2023-06-21T02:50:29.332Z,9.10
2023-06-21T02:52:32.376Z,9.17
2023-06-21T02:54:35.039Z,9.23
2023-06-21T02:56:37.904Z,9.28
2023-06-21T02:58:40.723Z,9.38
2023-06-21T03:00:43.438Z,9.43
2023-06-21T03:02:47.231Z,9.32
2023-06-21T03:04:50.237Z,9.43
2023-06-21T03:06:53.003Z,9.55
2023-06-21T03:08:55.898Z,9.45
2023-06-21T03:10:58.670Z,9.51
2023-06-21T03:13:01.411Z,9.55
2023-06-21T03:15:04.361Z,9.55
2023-06-21T03:17:07.372Z,9.55
2023-06-21T03:19:10.632Z,9.57
2023-06-21T03:21:13.758Z,9.48
2023-06-21T03:23:16.573Z,9.43
2023-06-21T03:25:19.393Z,9.50
2023-06-21T03:27:23.598Z,9.47
2023-06-21T03:29:26.652Z,9.41
2023-06-21T03:31:30.037Z,9.36
2023-06-21T03:33:32.921Z,9.41
2023-06-21T03:35:35.731Z,9.41
2023-06-21T03:37:38.558Z,9.44
2023-06-21T03:39:41.357Z,9.59
2023-06-21T03:41:44.127Z,9.62
2023-06-21T03:43:46.867Z,9.67
2023-06-21T03:45:49.682Z,9.84
2023-06-21T03:47:52.524Z,10.00
2023-06-21T03:49:58.891Z,10.14
2023-06-21T03:52:01.816Z,10.15
2023-06-21T03:54:05.208Z,10.22
2023-06-21T03:56:07.918Z,10.32
2023-06-21T03:58:14.021Z,10.33
2023-06-21T04:00:18.161Z,10.16
2023-06-21T04:02:22.469Z,10.27
2023-06-21T04:04:25.426Z,10.39
2023-06-21T04:06:28.245Z,10.60
2023-06-21T04:08:30.988Z,10.75
2023-06-21T04:10:33.866Z,10.71
2023-06-21T04:12:37.547Z,10.69
2023-06-21T04:14:40.737Z,10.71
2023-06-21T04:16:44.671Z,10.78
2023-06-21T04:18:47.506Z,10.98
2023-06-21T04:20:51.116Z,11.09
2023-06-21T04:22:53.840Z,11.14
2023-06-21T04:24:56.600Z,11.14
2023-06-21T04:26:59.865Z,11.17
2023-06-21T04:29:02.719Z,11.25
2023-06-21T04:31:05.738Z,11.32
2023-06-21T04:33:08.726Z,11.40
2023-06-21T04:35:18.467Z,11.19
2023-06-21T04:37:24.876Z,11.19
2023-06-21T04:39:27.683Z,11.12
2023-06-21T04:41:30.620Z,11.06
2023-06-21T04:43:33.460Z,10.94
2023-06-21T04:45:37.181Z,10.93
2023-06-21T04:47:40.008Z,11.10
2023-06-21T04:49:42.862Z,11.26
2023-06-21T04:51:45.962Z,11.15
2023-06-21T04:53:50.253Z,11.05
2023-06-21T04:55:53.561Z,10.97
2023-06-21T04:57:57.465Z,10.96
2023-06-21T05:00:00.346Z,10.91
2023-06-21T05:02:03.637Z,10.98
2023-06-21T05:04:06.339Z,11.10
2023-06-21T05:06:09.056Z,11.29
2023-06-21T05:08:11.880Z,11.39
2023-06-21T05:10:15.465Z,11.57
2023-06-21T05:12:18.216Z,11.72
2023-06-21T05:14:20.946Z,11.67
2023-06-21T05:16:23.792Z,11.65
2023-06-21T05:18:27.044Z,11.47
2023-06-21T05:20:30.559Z,11.63
2023-06-21T05:22:33.863Z,11.80
2023-06-21T05:24:39.212Z,12.00
2023-06-21T05:26:45.601Z,12.06
2023-06-21T05:28:49.364Z,12.07
2023-06-21T05:30:52.292Z,12.01
2023-06-21T05:32:55.268Z,12.13
2023-06-21T05:34:58.127Z,12.23
2023-06-21T05:37:00.937Z,12.24
2023-06-21T05:39:04.630Z,12.39
2023-06-21T05:41:07.349Z,12.29
2023-06-21T05:43:10.058Z,12.52
2023-06-21T05:45:12.981Z,12.71
2023-06-21T05:47:15.921Z,12.81
2023-06-21T05:49:19.572Z,12.82
2023-06-21T05:51:22.707Z,12.98
2023-06-21T05:53:25.736Z,13.01
2023-06-21T05:55:28.996Z,13.03
2023-06-21T05:57:31.937Z,12.87
2023-06-21T05:59:35.018Z,12.99
2023-06-21T06:01:38.288Z,12.83
2023-06-21T06:03:41.260Z,12.85
2023-06-21T06:05:45.933Z,13.04
2023-06-21T06:07:48.740Z,13.21
2023-06-21T06:09:51.885Z,13.34
2023-06-21T06:11:54.766Z,13.30
2023-06-21T06:13:57.664Z,13.48
2023-06-21T06:16:00.452Z,13.51
2023-06-21T06:18:03.378Z,13.73
2023-06-21T06:20:07.545Z,13.96
2023-06-21T06:22:10.510Z,14.10
2023-06-21T06:24:13.304Z,14.01
2023-06-21T06:26:16.168Z,13.88
2023-06-21T06:28:20.576Z,13.85
2023-06-21T06:30:23.371Z,13.89
2023-06-21T06:32:28.531Z,13.77
2023-06-21T06:34:31.408Z,13.77
2023-06-21T06:36:34.247Z,13.79
2023-06-21T06:38:37.152Z,13.80
2023-06-21T06:40:40.005Z,14.05
2023-06-21T06:42:43.045Z,14.10
2023-06-21T06:44:45.849Z,13.95
2023-06-21T06:46:50.050Z,14.13
2023-06-21T06:48:52.899Z,14.24
2023-06-21T06:50:56.110Z,14.26
2023-06-21T06:53:02.092Z,14.31
2023-06-21T06:55:05.800Z,14.30
2023-06-21T06:57:15.910Z,14.33
2023-06-21T06:59:26.637Z,14.17
2023-06-21T07:01:31.281Z,14.14
2023-06-21T07:03:34.759Z,14.15
2023-06-21T07:05:37.944Z,14.32
2023-06-21T07:07:40.635Z,14.31
2023-06-21T07:09:43.465Z,14.23
2023-06-21T07:11:46.242Z,14.19
2023-06-21T07:13:49.120Z,14.27
2023-06-21T07:15:52.077Z,14.44
2023-06-21T07:17:56.750Z,14.46
2023-06-21T07:19:59.562Z,14.61
2023-06-21T07:22:02.441Z,14.58
2023-06-21T07:24:05.504Z,14.73
2023-06-21T07:26:09.762Z,14.77
2023-06-21T07:28:12.904Z,14.82
2023-06-21T07:30:15.703Z,15.06
2023-06-21T07:32:18.578Z,14.95
2023-06-21T07:34:21.427Z,15.15
2023-06-21T07:36:24.637Z,15.01
2023-06-21T07:38:27.427Z,14.91
2023-06-21T07:40:30.627Z,14.94
2023-06-21T07:42:33.554Z,15.02
2023-06-21T07:44:36.321Z,14.71
2023-06-21T07:46:39.280Z,14.70
2023-06-21T07:48:42.132Z,14.36
2023-06-21T07:50:45.063Z,14.36
2023-06-21T07:52:48.537Z,14.15
2023-06-21T07:54:51.392Z,14.07
2023-06-21T07:56:54.299Z,14.06
2023-06-21T07:58:57.219Z,14.15
2023-06-21T08:01:00.122Z,14.16
2023-06-21T08:03:03.313Z,14.47
2023-06-21T08:05:06.956Z,14.61
2023-06-21T08:07:09.865Z,14.95
2023-06-21T08:09:13.401Z,14.93
2023-06-21T08:11:16.191Z,14.56
2023-06-21T08:13:23.907Z,14.45
2023-06-21T08:15:27.369Z,14.56
2023-06-21T08:17:30.583Z,14.63
2023-06-21T08:19:33.367Z,14.73
2023-06-21T08:21:36.484Z,14.71
2023-06-21T08:23:39.370Z,14.55
2023-06-21T08:25:42.113Z,14.48
2023-06-21T08:27:45.073Z,14.35
2023-06-21T08:29:48.412Z,14.30
2023-06-21T08:31:51.310Z,14.33
2023-06-21T08:33:54.335Z,14.43
2023-06-21T08:35:57.399Z,14.56
2023-06-21T08:38:08.744Z,14.61
2023-06-21T08:40:26.593Z,14.71
2023-06-21T08:42:29.371Z,14.69
2023-06-21T08:44:32.279Z,14.92
2023-06-21T08:46:39.538Z,15.15
2023-06-21T08:48:46.440Z,15.70
2023-06-21T08:50:51.240Z,16.16
2023-06-21T08:52:56.444Z,16.33
2023-06-21T08:55:04.762Z,16.59
2023-06-21T08:57:10.661Z,16.87
2023-06-21T08:59:45.334Z,17.18
2023-06-21T09:02:11.211Z,17.30
2023-06-21T09:04:18.784Z,17.62
2023-06-21T09:06:24.204Z,17.39
2023-06-21T09:08:27.561Z,17.53
2023-06-21T09:10:31.403Z,16.93
2023-06-21T09:12:36.450Z,16.79
2023-06-21T09:14:40.559Z,16.34
2023-06-21T09:16:43.759Z,15.99
2023-06-21T09:18:47.915Z,16.25
2023-06-21T09:20:51.976Z,16.20
2023-06-21T09:22:59.557Z,16.32
2023-06-21T09:25:02.845Z,16.17
2023-06-21T09:27:08.246Z,15.96
2023-06-21T09:29:10.992Z,15.64
2023-06-21T09:31:14.814Z,15.41
2023-06-21T09:33:18.614Z,15.20
2023-06-21T09:35:22.318Z,15.26
2023-06-21T09:37:42.804Z,15.07
2023-06-21T09:39:55.581Z,15.25
2023-06-21T09:41:58.871Z,15.48
2023-06-21T09:44:02.080Z,15.49
2023-06-21T09:46:06.825Z,15.45
2023-06-21T09:48:16.704Z,15.50
2023-06-21T09:50:19.622Z,15.42
2023-06-21T09:52:24.124Z,15.21
2023-06-21T09:54:26.893Z,15.26
2023-06-21T09:56:34.902Z,15.09
2023-06-21T09:58:42.264Z,15.14
2023-06-21T10:00:45.234Z,15.28
2023-06-21T10:02:48.276Z,15.44
2023-06-21T10:04:55.970Z,15.39
2023-06-21T10:07:04.762Z,15.44
2023-06-21T10:09:10.936Z,15.13
2023-06-21T10:11:18.047Z,15.03
2023-06-21T10:13:38.947Z,14.87
2023-06-21T10:15:46.340Z,14.70
2023-06-21T10:18:00.095Z,14.60
2023-06-21T10:20:08.179Z,14.51
2023-06-21T10:22:17.610Z,14.51
2023-06-21T10:24:22.869Z,14.47
2023-06-21T10:26:28.351Z,14.42
2023-06-21T10:28:36.682Z,14.35
2023-06-21T10:30:41.160Z,14.36
2023-06-21T10:32:44.518Z,14.40
2023-06-21T10:35:02.406Z,14.49
2023-06-21T10:37:27.142Z,14.38
2023-06-21T10:39:34.908Z,14.29
2023-06-21T10:41:41.284Z,14.48
2023-06-21T10:43:45.948Z,14.47
2023-06-21T10:45:51.176Z,14.46
2023-06-21T10:47:58.448Z,14.46
2023-06-21T10:50:02.647Z,14.48
2023-06-21T10:52:09.961Z,14.47
2023-06-21T10:54:14.122Z,14.58
2023-06-21T10:56:18.450Z,14.70
2023-06-21T10:58:21.320Z,14.59
2023-06-21T11:00:26.254Z,14.70
2023-06-21T11:02:30.371Z,14.94
2023-06-21T11:05:11.499Z,15.16
2023-06-21T11:07:14.413Z,15.35
2023-06-21T11:09:19.392Z,15.43
2023-06-21T11:11:36.590Z,15.42
2023-06-21T11:13:41.229Z,15.67
2023-06-21T11:15:48.595Z,15.67
2023-06-21T11:18:02.245Z,15.63
2023-06-21T11:20:24.478Z,15.83
2023-06-21T11:22:28.089Z,15.73
2023-06-21T11:24:32.390Z,15.64
2023-06-21T11:26:58.754Z,15.67
2023-06-21T11:29:15.250Z,15.70
2023-06-21T11:31:24.319Z,15.84
2023-06-21T11:33:53.834Z,15.51
2023-06-21T11:36:07.072Z,15.42
2023-06-21T11:38:09.831Z,15.37
2023-06-21T11:40:19.576Z,15.33
2023-06-21T11:42:28.241Z,15.54
2023-06-21T11:44:32.283Z,15.59
2023-06-21T11:46:35.308Z,15.59
2023-06-21T11:48:41.168Z,15.21
2023-06-21T11:50:46.571Z,15.34
2023-06-21T11:52:49.478Z,15.21
2023-06-21T11:54:52.428Z,15.44
2023-06-21T11:56:56.206Z,15.64
2023-06-21T11:59:02.605Z,15.77
2023-06-21T12:01:05.405Z,15.80
2023-06-21T12:03:11.496Z,15.98
2023-06-21T12:05:14.496Z,16.07
2023-06-21T12:07:18.366Z,15.94
2023-06-21T12:09:21.288Z,16.16
2023-06-21T12:11:30.442Z,16.12
2023-06-21T12:13:34.566Z,15.96
2023-06-21T12:15:37.337Z,15.78
2023-06-21T12:17:40.207Z,15.65
2023-06-21T12:19:42.940Z,15.54
2023-06-21T12:21:45.888Z,15.32
2023-06-21T12:23:49.060Z,15.44
2023-06-21T12:25:57.225Z,15.60
2023-06-21T12:28:00.214Z,15.73
2023-06-21T12:30:03.774Z,15.79
2023-06-21T12:32:08.080Z,15.84
2023-06-21T12:34:19.697Z,15.82
2023-06-21T12:36:24.466Z,15.74
2023-06-21T12:38:27.332Z,15.86
2023-06-21T12:40:30.473Z,16.01
2023-06-21T12:42:33.619Z,16.15
2023-06-21T12:44:36.596Z,16.13
2023-06-21T12:46:41.843Z,16.16
2023-06-21T12:49:02.873Z,16.16
2023-06-21T12:51:07.526Z,16.11
2023-06-21T12:53:12.831Z,16.26
2023-06-21T12:55:18.431Z,16.21
2023-06-21T12:57:37.472Z,16.04
2023-06-21T12:59:40.206Z,16.12
2023-06-21T13:01:43.080Z,16.06
2023-06-21T13:03:46.832Z,16.16
2023-06-21T13:05:49.772Z,16.46
2023-06-21T13:07:52.574Z,17.12
2023-06-21T13:09:55.384Z,17.40
2023-06-21T13:11:58.120Z,17.40
2023-06-21T13:14:01.538Z,17.98
2023-06-21T13:16:04.502Z,18.45
2023-06-21T13:18:07.301Z,18.24
2023-06-21T13:20:11.871Z,18.50
2023-06-21T13:22:14.712Z,18.74
2023-06-21T13:24:17.494Z,19.12
2023-06-21T13:26:20.285Z,19.27
2023-06-21T13:28:23.888Z,19.30
2023-06-21T13:30:26.817Z,19.02
2023-06-21T13:32:29.749Z,18.41
2023-06-21T13:34:32.861Z,17.64
2023-06-21T13:36:35.872Z,16.84
2023-06-21T13:38:38.773Z,16.52
2023-06-21T13:40:43.193Z,16.22
2023-06-21T13:42:46.012Z,15.98
2023-06-21T13:44:48.685Z,15.82
2023-06-21T13:46:52.204Z,15.64
2023-06-21T13:48:55.073Z,15.47
2023-06-21T13:50:57.948Z,15.46
2023-06-21T13:53:00.735Z,15.32
2023-06-21T13:55:04.039Z,15.36
2023-06-21T13:57:16.181Z,15.21
2023-06-21T13:59:20.129Z,15.16
2023-06-21T14:01:23.084Z,14.96
2023-06-21T14:03:26.610Z,14.99
2023-06-21T14:05:29.783Z,15.07
2023-06-21T14:07:32.552Z,14.95
2023-06-21T14:09:37.386Z,14.94
2023-06-21T14:11:40.052Z,15.01
2023-06-21T14:13:42.756Z,14.90
2023-06-21T14:15:45.507Z,15.01
2023-06-21T14:17:48.396Z,15.09
2023-06-21T14:19:52.146Z,15.22
2023-06-21T14:21:54.979Z,15.38
2023-06-21T14:23:57.812Z,15.53
2023-06-21T14:26:00.580Z,15.59
2023-06-21T14:28:03.527Z,15.58
2023-06-21T14:30:06.838Z,15.59
2023-06-21T14:32:19.241Z,15.48
2023-06-21T14:34:22.045Z,15.40
2023-06-21T14:36:24.886Z,15.43
2023-06-21T14:38:29.415Z,15.54
2023-06-21T14:40:32.231Z,15.61
2023-06-21T14:42:35.162Z,15.56
2023-06-21T14:44:43.281Z,15.54
2023-06-21T14:46:46.114Z,15.56
2023-06-21T14:48:50.583Z,15.55
2023-06-21T14:50:53.302Z,15.43
2023-06-21T14:52:55.996Z,15.40
2023-06-21T14:54:58.855Z,15.31
2023-06-21T14:57:02.038Z,15.41
2023-06-21T14:59:05.125Z,15.89
2023-06-21T15:01:10.904Z,16.58
2023-06-21T15:03:13.898Z,17.15
2023-06-21T15:05:16.697Z,17.69
2023-06-21T15:07:19.717Z,17.58
2023-06-21T15:09:22.535Z,17.23
2023-06-21T15:11:25.259Z,17.06
2023-06-21T15:13:27.936Z,17.31
2023-06-21T15:15:31.232Z,17.44
2023-06-21T15:17:34.276Z,17.18
2023-06-21T15:19:37.090Z,17.33
2023-06-21T15:21:40.478Z,17.20
2023-06-21T15:23:43.804Z,16.92
2023-06-21T15:25:46.574Z,16.79
2023-06-21T15:27:49.716Z,16.63
2023-06-21T15:29:52.435Z,16.35
2023-06-21T15:31:55.214Z,16.31
2023-06-21T15:33:57.988Z,16.36
2023-06-21T15:36:00.711Z,17.02
2023-06-21T15:38:03.788Z,17.63
2023-06-21T15:40:11.513Z,18.10
2023-06-21T15:42:15.740Z,18.61
2023-06-21T15:44:18.920Z,18.95
2023-06-21T15:46:21.796Z,19.07
2023-06-21T15:48:24.702Z,19.03
2023-06-21T15:50:27.478Z,18.86
2023-06-21T15:52:30.750Z,18.89
2023-06-21T15:54:33.569Z,19.10
2023-06-21T15:56:36.677Z,18.97
2023-06-21T15:58:39.516Z,18.79
2023-06-21T16:00:42.389Z,18.59
2023-06-21T16:02:47.402Z,18.18
2023-06-21T16:04:50.250Z,17.77
2023-06-21T16:06:53.057Z,17.25
2023-06-21T16:08:57.003Z,16.79
2023-06-21T16:11:00.285Z,16.60
2023-06-21T16:13:04.687Z,16.29
2023-06-21T16:15:08.300Z,16.19
2023-06-21T16:17:11.096Z,15.98
2023-06-21T16:19:13.864Z,15.82
2023-06-21T16:21:16.686Z,15.70
2023-06-21T16:23:19.456Z,15.40
2023-06-21T16:25:22.165Z,15.23
2023-06-21T16:27:25.013Z,15.11
2023-06-21T16:29:27.785Z,15.01
2023-06-21T16:31:30.937Z,14.93
2023-06-21T16:33:33.860Z,14.88
2023-06-21T16:35:36.832Z,14.77
2023-06-21T16:37:44.753Z,14.63
2023-06-21T16:39:47.456Z,14.53
2023-06-21T16:41:50.166Z,14.46
2023-06-21T16:43:52.875Z,14.30
2023-06-21T16:45:55.670Z,14.21
2023-06-21T16:47:58.918Z,14.10
2023-06-21T16:50:01.938Z,14.04
2023-06-21T16:52:07.732Z,13.95
2023-06-21T16:54:10.683Z,13.88
2023-06-21T16:56:14.732Z,13.82
2023-06-21T16:58:17.612Z,13.71
2023-06-21T17:00:20.870Z,13.63
2023-06-21T17:02:24.444Z,13.49
2023-06-21T17:04:27.468Z,13.39
2023-06-21T17:06:30.296Z,13.31
2023-06-21T17:08:33.526Z,13.19
2023-06-21T17:10:36.820Z,13.10
2023-06-21T17:12:39.709Z,13.04
2023-06-21T17:14:44.179Z,12.98
2023-06-21T17:16:47.522Z,12.93
2023-06-21T17:18:52.408Z,12.90
2023-06-21T17:20:55.382Z,12.87
2023-06-21T17:22:58.204Z,12.85
2023-06-21T17:25:02.238Z,12.84
2023-06-21T17:27:10.713Z,12.79
2023-06-21T17:29:13.512Z,12.72
2023-06-21T17:31:16.406Z,12.74
2023-06-21T17:33:19.271Z,12.69
2023-06-21T17:35:21.963Z,12.64
2023-06-21T17:37:24.723Z,12.65
2023-06-21T17:39:27.659Z,12.63
2023-06-21T17:41:30.528Z,12.61
2023-06-21T17:43:33.305Z,12.61
2023-06-21T17:45:36.067Z,12.59
2023-06-21T17:47:39.061Z,12.57
2023-06-21T17:49:42.067Z,12.54
2023-06-21T17:51:45.077Z,12.55
2023-06-21T17:53:47.847Z,12.53
2023-06-21T17:55:50.908Z,12.50
2023-06-21T17:57:54.934Z,12.40
2023-06-21T17:59:58.069Z,12.35
2023-06-21T18:02:00.885Z,12.31
2023-06-21T18:04:04.064Z,12.23
2023-06-21T18:06:07.221Z,12.20
2023-06-21T18:08:10.157Z,12.21
2023-06-21T18:10:12.852Z,12.19
2023-06-21T18:12:16.202Z,12.15
2023-06-21T18:14:18.914Z,12.14
2023-06-21T18:16:21.768Z,12.10
2023-06-21T18:18:24.508Z,12.11
2023-06-21T18:20:27.385Z,12.12
2023-06-21T18:22:38.365Z,12.06
2023-06-21T18:24:45.728Z,12.08
2023-06-21T18:26:51.038Z,12.08
2023-06-21T18:28:53.969Z,12.07
2023-06-21T18:30:56.809Z,12.10
2023-06-21T18:33:00.807Z,12.10
2023-06-21T18:35:03.942Z,12.14
2023-06-21T18:37:07.186Z,12.15
2023-06-21T18:39:09.968Z,12.16
2023-06-21T18:41:12.741Z,12.15
2023-06-21T18:43:15.611Z,12.16
2023-06-21T18:45:18.591Z,12.16
2023-06-21T18:47:21.514Z,12.15
2023-06-21T18:49:26.423Z,12.16
2023-06-21T18:51:31.581Z,12.15
2023-06-21T18:53:34.456Z,12.14
2023-06-21T18:55:37.243Z,12.13
2023-06-21T18:57:40.668Z,12.13
2023-06-21T18:59:44.077Z,12.11
2023-06-21T19:01:47.472Z,12.11
2023-06-21T19:03:51.168Z,12.04
2023-06-21T19:05:55.530Z,12.09
2023-06-21T19:07:58.383Z,12.05
2023-06-21T19:10:04.398Z,12.01
2023-06-21T19:12:09.362Z,12.02
2023-06-21T19:14:12.112Z,11.97
2023-06-21T19:16:15.133Z,11.95
2023-06-21T19:18:17.918Z,11.96
2023-06-21T19:20:20.748Z,11.98
2023-06-21T19:22:23.496Z,11.96
2023-06-21T19:24:26.277Z,11.93
2023-06-21T19:26:29.097Z,11.94
2023-06-21T19:28:31.931Z,11.89
2023-06-21T19:30:36.441Z,11.86
2023-06-21T19:32:40.562Z,11.82
2023-06-21T19:34:45.932Z,11.77
2023-06-21T19:36:48.744Z,11.79
2023-06-21T19:38:51.755Z,11.67
2023-06-21T19:40:54.530Z,11.68
2023-06-21T19:42:57.212Z,11.62
2023-06-21T19:44:59.995Z,11.60
2023-06-21T19:47:03.004Z,11.52
2023-06-21T19:49:05.795Z,11.50
2023-06-21T19:51:08.983Z,11.45
2023-06-21T19:53:11.946Z,11.41
2023-06-21T19:55:14.742Z,11.36
2023-06-21T19:57:18.049Z,11.30
2023-06-21T19:59:22.231Z,11.25
2023-06-21T20:01:25.497Z,11.29
2023-06-21T20:03:28.352Z,11.26
2023-06-21T20:05:31.133Z,11.22
2023-06-21T20:07:33.947Z,11.26
2023-06-21T20:09:36.864Z,11.26
2023-06-21T20:11:39.711Z,11.21
2023-06-21T20:13:45.530Z,11.20
2023-06-21T20:15:50.427Z,11.17
2023-06-21T20:17:53.219Z,11.17
2023-06-21T20:19:56.225Z,11.13
2023-06-21T20:21:58.904Z,11.11
2023-06-21T20:24:02.024Z,11.11
2023-06-21T20:26:04.989Z,11.09
2023-06-21T20:28:08.404Z,11.08
2023-06-21T20:30:11.834Z,11.05
2023-06-21T20:32:14.580Z,11.03
2023-06-21T20:34:19.169Z,11.05
2023-06-21T20:36:23.330Z,10.99
2023-06-21T20:38:26.162Z,10.93
2023-06-21T20:40:29.246Z,10.88
2023-06-21T20:42:32.391Z,10.84
2023-06-21T20:44:35.167Z,10.70
2023-06-21T20:46:38.718Z,10.74
2023-06-21T20:48:41.554Z,10.70
2023-06-21T20:50:44.961Z,10.63
2023-06-21T20:52:47.922Z,10.61
2023-06-21T20:54:51.150Z,10.54
2023-06-21T20:56:53.907Z,10.48
2023-06-21T20:58:58.266Z,10.46
2023-06-21T21:01:01.205Z,10.42
2023-06-21T21:03:05.004Z,10.36
2023-06-21T21:05:10.152Z,10.33
2023-06-21T21:07:13.111Z,10.30
2023-06-21T21:09:15.936Z,10.25
2023-06-21T21:11:18.742Z,10.23
2023-06-21T21:13:21.609Z,10.23
2023-06-21T21:15:24.486Z,10.22
2023-06-21T21:17:27.968Z,10.16
2023-06-21T21:19:30.909Z,10.13
2023-06-21T21:21:35.033Z,10.08
2023-06-21T21:23:37.780Z,10.01
2023-06-21T21:25:42.771Z,10.00
2023-06-21T21:27:45.579Z,9.93
2023-06-21T21:29:48.332Z,9.93
2023-06-21T21:31:55.818Z,9.89
2023-06-21T21:33:58.625Z,9.83
2023-06-21T21:36:01.546Z,9.76
2023-06-21T21:38:07.506Z,9.73
2023-06-21T21:40:10.858Z,9.73
2023-06-21T21:42:13.675Z,9.64
2023-06-21T21:44:16.443Z,9.60
2023-06-21T21:46:19.230Z,9.59
2023-06-21T21:48:22.176Z,9.51
2023-06-21T21:50:25.041Z,9.50
2023-06-21T21:52:27.704Z,9.46
2023-06-21T21:54:30.502Z,9.40
2023-06-21T21:56:33.547Z,9.38
2023-06-21T21:58:36.601Z,9.31
2023-06-21T22:00:39.399Z,9.32
2023-06-21T22:02:42.502Z,9.31
2023-06-21T22:04:46.166Z,9.27
2023-06-21T22:06:49.354Z,9.25
2023-06-21T22:08:53.733Z,9.26
2023-06-21T22:10:56.665Z,9.23
2023-06-21T22:12:59.392Z,9.22
2023-06-21T22:15:02.066Z,9.21
2023-06-21T22:17:09.097Z,9.22
2023-06-21T22:19:12.019Z,9.20
2023-06-21T22:21:14.802Z,9.22
2023-06-21T22:23:18.999Z,9.19
2023-06-21T22:25:22.118Z,9.19
2023-06-21T22:27:25.127Z,9.20
2023-06-21T22:29:27.930Z,9.16
2023-06-21T22:31:30.970Z,9.15
2023-06-21T22:33:34.118Z,9.12
2023-06-21T22:35:37.095Z,9.09
2023-06-21T22:37:40.192Z,9.05
2023-06-21T22:39:42.899Z,9.04
2023-06-21T22:41:45.831Z,8.97
2023-06-21T22:43:48.619Z,8.94
2023-06-21T22:45:51.389Z,8.89
2023-06-21T22:47:54.388Z,8.88
2023-06-21T22:49:57.200Z,8.85
2023-06-21T22:52:01.357Z,8.82
2023-06-21T22:54:09.063Z,8.78
2023-06-21T22:56:12.042Z,8.72
2023-06-21T22:58:14.846Z,8.71
2023-06-21T23:00:18.180Z,8.75
2023-06-21T23:02:22.447Z,8.76
2023-06-21T23:04:25.504Z,8.73
2023-06-21T23:06:28.598Z,8.71
2023-06-21T23:08:32.550Z,8.69
2023-06-21T23:10:35.316Z,8.68
2023-06-21T23:12:45.304Z,8.67
2023-06-21T23:14:48.251Z,8.64
2023-06-21T23:16:51.101Z,8.60
2023-06-21T23:18:57.668Z,8.57
2023-06-21T23:21:05.314Z,8.54
2023-06-21T23:23:16.676Z,8.53
2023-06-21T23:25:19.856Z,8.50
2023-06-21T23:27:22.665Z,8.47
2023-06-21T23:29:25.427Z,8.46
2023-06-21T23:31:34.801Z,8.48
2023-06-21T23:33:39.749Z,8.46
2023-06-21T23:35:43.438Z,8.49
2023-06-21T23:37:54.894Z,8.51
2023-06-21T23:39:58.987Z,8.48
2023-06-21T23:42:02.830Z,8.44
2023-06-21T23:44:06.356Z,8.41
2023-06-21T23:46:09.186Z,8.37
2023-06-21T23:48:12.132Z,8.38
2023-06-21T23:50:14.987Z,8.34
2023-06-21T23:52:17.803Z,8.33
2023-06-21T23:54:27.265Z,8.33
2023-06-21T23:56:30.172Z,8.35
2023-06-21T23:58:34.042Z,8.31
